createdAt,value
2022-11-07T00:01:18.234Z,67.30
2022-11-07T00:03:44.974Z,67.40
2022-11-07T00:06:12.307Z,67.10
2022-11-07T00:08:39.275Z,67.00
2022-11-07T00:11:06.635Z,67.10
2022-11-07T00:13:33.699Z,67.30
2022-11-07T00:16:02.101Z,67.40
2022-11-07T00:18:29.232Z,67.40
2022-11-07T00:20:56.069Z,67.30
2022-11-07T00:23:22.695Z,67.40
2022-11-07T00:25:49.271Z,67.10
2022-11-07T00:28:15.861Z,67.20
2022-11-07T00:30:43.679Z,67.20
2022-11-07T00:33:10.290Z,67.10
2022-11-07T00:35:41.945Z,67.30
2022-11-07T00:38:08.654Z,67.40
2022-11-07T00:40:35.247Z,67.00
2022-11-07T00:43:01.896Z,67.20
2022-11-07T00:45:28.463Z,67.40
2022-11-07T00:47:55.024Z,67.10
2022-11-07T00:50:21.598Z,67.20
2022-11-07T00:52:48.162Z,67.20
2022-11-07T00:55:15.014Z,67.30
2022-11-07T00:57:41.759Z,67.20
2022-11-07T01:00:09.100Z,67.30
2022-11-07T01:02:35.808Z,67.20
2022-11-07T01:05:11.456Z,67.40
2022-11-07T01:07:39.241Z,67.50
2022-11-07T01:10:07.434Z,67.40
2022-11-07T01:12:35.691Z,67.30
2022-11-07T01:15:03.947Z,67.20
2022-11-07T01:17:30.584Z,67.30
2022-11-07T01:19:57.177Z,67.30
2022-11-07T01:22:23.750Z,67.30
2022-11-07T01:24:50.414Z,67.30
2022-11-07T01:27:17.001Z,67.40
2022-11-07T01:29:43.594Z,67.20
2022-11-07T01:32:10.182Z,67.20
2022-11-07T01:34:36.755Z,67.20
2022-11-07T01:37:03.383Z,67.10
2022-11-07T01:39:29.962Z,67.20
2022-11-07T01:41:56.570Z,67.30
2022-11-07T01:44:23.100Z,67.30
2022-11-07T01:46:50.473Z,67.50
2022-11-07T01:49:31.421Z,67.30
2022-11-07T01:52:09.909Z,67.50
2022-11-07T01:54:43.234Z,67.60
2022-11-07T01:57:15.394Z,67.40
2022-11-07T01:59:42.548Z,67.30
2022-11-07T02:02:09.815Z,67.50
2022-11-07T02:04:37.271Z,67.60
2022-11-07T02:07:13.603Z,67.60
2022-11-07T02:09:41.410Z,67.40
2022-11-07T02:12:08.442Z,67.40
2022-11-07T02:14:35.080Z,67.40
2022-11-07T02:17:01.823Z,67.50
2022-11-07T02:19:42.178Z,67.50
2022-11-07T02:22:35.650Z,67.60
2022-11-07T02:25:06.195Z,67.40
2022-11-07T02:27:33.665Z,67.40
2022-11-07T02:30:22.351Z,67.50
2022-11-07T02:32:50.274Z,67.50
2022-11-07T02:35:42.573Z,67.40
2022-11-07T02:38:11.099Z,67.60
2022-11-07T02:40:37.919Z,67.60
2022-11-07T02:43:06.528Z,67.70
2022-11-07T02:45:35.769Z,67.70
2022-11-07T02:48:02.669Z,67.80
2022-11-07T02:50:29.299Z,67.60
2022-11-07T02:52:55.865Z,67.60
2022-11-07T02:55:22.654Z,67.50
2022-11-07T02:57:49.204Z,67.50
2022-11-07T03:00:16.352Z,67.50
2022-11-07T03:02:47.036Z,67.70
2022-11-07T03:05:16.980Z,67.50
2022-11-07T03:07:46.619Z,67.50
2022-11-07T03:10:14.147Z,67.30
2022-11-07T03:12:40.761Z,67.30
2022-11-07T03:15:09.616Z,67.30
2022-11-07T03:17:36.369Z,67.40
2022-11-07T03:20:03.863Z,67.40
2022-11-07T03:22:30.624Z,67.50
2022-11-07T03:24:57.197Z,67.50
2022-11-07T03:27:23.754Z,67.60
2022-11-07T03:29:50.392Z,67.60
2022-11-07T03:32:16.979Z,67.60
2022-11-07T03:34:43.543Z,67.60
2022-11-07T03:37:10.304Z,67.70
2022-11-07T03:39:36.918Z,67.80
2022-11-07T03:42:03.626Z,67.80
2022-11-07T03:44:30.235Z,67.60
2022-11-07T03:46:56.853Z,67.80
2022-11-07T03:49:23.411Z,67.80
2022-11-07T03:51:49.991Z,67.80
2022-11-07T03:54:16.560Z,67.90
2022-11-07T03:56:43.247Z,67.70
2022-11-07T03:59:09.858Z,67.70
2022-11-07T04:01:36.623Z,67.90
2022-11-07T04:04:03.540Z,67.60
2022-11-07T04:06:30.138Z,67.80
2022-11-07T04:08:56.924Z,67.80
2022-11-07T04:11:42.092Z,67.50
2022-11-07T04:14:27.027Z,67.70
2022-11-07T04:17:12.517Z,66.80
2022-11-07T04:19:39.233Z,67.40
2022-11-07T04:22:05.990Z,67.40
2022-11-07T04:24:32.614Z,67.60
2022-11-07T04:27:17.871Z,67.70
2022-11-07T04:29:44.443Z,67.80
2022-11-07T04:32:11.062Z,67.70
2022-11-07T04:34:38.035Z,67.70
2022-11-07T04:37:04.720Z,67.70
2022-11-07T04:39:31.314Z,67.60
2022-11-07T04:41:57.890Z,67.80
2022-11-07T04:44:24.446Z,67.70
2022-11-07T04:46:51.026Z,67.80
2022-11-07T04:49:17.816Z,67.70
2022-11-07T04:51:44.828Z,67.80
2022-11-07T04:54:14.886Z,67.80
2022-11-07T04:56:41.903Z,67.70
2022-11-07T04:59:08.471Z,67.50
2022-11-07T05:01:35.209Z,67.60
2022-11-07T05:04:01.824Z,67.60
2022-11-07T05:06:29.108Z,67.60
2022-11-07T05:08:55.683Z,67.60
2022-11-07T05:11:22.271Z,67.50
2022-11-07T05:13:48.862Z,67.40
2022-11-07T05:16:17.213Z,67.50
2022-11-07T05:18:52.984Z,67.60
2022-11-07T05:21:23.846Z,67.80
2022-11-07T05:23:54.017Z,67.70
2022-11-07T05:26:20.756Z,67.90
2022-11-07T05:28:47.500Z,67.80
2022-11-07T05:31:18.035Z,67.90
2022-11-07T05:33:44.767Z,67.90
2022-11-07T05:36:14.167Z,67.70
2022-11-07T05:38:46.022Z,67.80
2022-11-07T05:41:13.930Z,67.60
2022-11-07T05:43:40.908Z,67.60
2022-11-07T05:46:08.059Z,67.70
2022-11-07T05:48:35.697Z,67.70
2022-11-07T05:51:02.951Z,67.60
2022-11-07T05:53:30.637Z,67.60
2022-11-07T05:55:57.286Z,67.60
2022-11-07T05:58:24.354Z,67.60
2022-11-07T06:00:51.210Z,67.60
2022-11-07T06:03:20.314Z,67.60
2022-11-07T06:05:47.335Z,67.70
2022-11-07T06:08:14.387Z,67.80
2022-11-07T06:10:42.774Z,67.80
2022-11-07T06:13:13.480Z,67.80
2022-11-07T06:15:41.323Z,67.70
2022-11-07T06:18:13.703Z,67.50
2022-11-07T06:20:40.800Z,67.90
2022-11-07T06:23:07.550Z,67.60
2022-11-07T06:25:35.692Z,67.50
2022-11-07T06:28:04.790Z,67.50
2022-11-07T06:30:32.115Z,67.70
2022-11-07T06:33:03.324Z,67.40
2022-11-07T06:35:30.945Z,67.40
2022-11-07T06:38:01.283Z,67.40
2022-11-07T06:40:29.964Z,67.50
2022-11-07T06:42:56.569Z,67.30
2022-11-07T06:45:23.251Z,67.50
2022-11-07T06:47:49.794Z,67.40
2022-11-07T06:50:16.429Z,67.40
2022-11-07T06:52:43.012Z,67.20
2022-11-07T06:55:09.704Z,67.20
2022-11-07T06:57:36.345Z,67.40
2022-11-07T07:00:05.511Z,67.50
2022-11-07T07:02:56.971Z,67.30
2022-11-07T07:05:21.197Z,67.30
2022-11-07T07:07:48.220Z,67.40
2022-11-07T07:10:15.271Z,67.60
2022-11-07T07:12:42.145Z,67.40
2022-11-07T07:15:09.186Z,67.20
2022-11-07T07:17:35.763Z,67.20
2022-11-07T07:20:02.451Z,67.20
2022-11-07T07:22:29.038Z,67.30
2022-11-07T07:24:55.798Z,67.20
2022-11-07T07:27:22.397Z,67.50
2022-11-07T07:29:49.830Z,67.20
2022-11-07T07:32:16.429Z,67.20
2022-11-07T07:34:42.989Z,67.10
2022-11-07T07:37:09.773Z,67.40
2022-11-07T07:39:36.586Z,67.30
2022-11-07T07:42:03.468Z,67.40
2022-11-07T07:44:30.134Z,67.50
2022-11-07T07:46:56.716Z,67.70
2022-11-07T07:49:23.327Z,67.50
2022-11-07T07:51:49.901Z,67.40
2022-11-07T07:54:16.527Z,67.50
2022-11-07T07:56:43.147Z,67.40
2022-11-07T07:59:09.719Z,67.50
2022-11-07T08:01:36.389Z,67.50
2022-11-07T08:04:03.389Z,67.30
2022-11-07T08:06:30.427Z,67.40
2022-11-07T08:08:57.065Z,67.60
2022-11-07T08:11:24.019Z,67.60
2022-11-07T08:13:50.611Z,67.60
2022-11-07T08:16:17.267Z,67.60
2022-11-07T08:18:43.824Z,67.60
2022-11-07T08:21:10.521Z,67.60
2022-11-07T08:23:37.381Z,67.80
2022-11-07T08:26:04.988Z,67.90
2022-11-07T08:28:35.300Z,67.80
2022-11-07T08:31:04.077Z,67.90
2022-11-07T08:33:31.302Z,68.00
2022-11-07T08:36:03.064Z,67.90
2022-11-07T08:38:31.319Z,68.00
2022-11-07T08:40:58.669Z,68.00
2022-11-07T08:43:26.064Z,68.00
2022-11-07T08:45:54.375Z,67.80
2022-11-07T08:48:21.766Z,67.80
2022-11-07T08:50:53.382Z,67.60
2022-11-07T08:53:20.484Z,67.60
2022-11-07T08:55:47.482Z,67.50
2022-11-07T08:58:15.058Z,67.70
2022-11-07T09:00:41.750Z,67.60
2022-11-07T09:05:58.390Z,67.50
2022-11-07T09:08:25.348Z,67.70
2022-11-07T09:10:51.918Z,67.60
2022-11-07T09:13:20.580Z,67.50
2022-11-07T09:15:51.005Z,67.50
2022-11-07T09:18:18.159Z,67.50
2022-11-07T09:20:44.709Z,67.40
2022-11-07T09:23:11.314Z,67.80
2022-11-07T09:25:37.929Z,67.60
2022-11-07T09:28:05.084Z,67.30
2022-11-07T09:30:32.053Z,67.40
2022-11-07T09:32:58.802Z,67.40
2022-11-07T09:35:25.656Z,67.50
2022-11-07T09:37:52.678Z,67.60
2022-11-07T09:40:19.261Z,67.30
2022-11-07T09:42:49.004Z,67.40
2022-11-07T09:45:15.906Z,67.70
2022-11-07T09:47:51.886Z,67.60
2022-11-07T09:50:41.031Z,67.80
2022-11-07T09:53:14.839Z,67.30
2022-11-07T09:55:50.881Z,67.50
2022-11-07T09:58:32.747Z,67.40
2022-11-07T10:01:08.529Z,67.60
2022-11-07T10:03:37.989Z,67.50
2022-11-07T10:06:24.344Z,67.50
2022-11-07T10:09:01.644Z,67.80
2022-11-07T10:11:43.211Z,67.60
2022-11-07T10:14:36.332Z,67.60
2022-11-07T10:17:29.147Z,67.70
2022-11-07T10:20:26.621Z,67.50
2022-11-07T10:23:08.576Z,67.70
2022-11-07T10:25:58.935Z,67.70
2022-11-07T10:28:29.340Z,67.80
2022-11-07T10:30:58.788Z,67.70
2022-11-07T10:33:39.840Z,67.80
2022-11-07T10:36:31.995Z,67.80
2022-11-07T10:38:58.967Z,67.90
2022-11-07T10:41:31.578Z,67.90
2022-11-07T10:44:02.327Z,67.90
2022-11-07T10:46:41.522Z,68.20
2022-11-07T10:49:24.066Z,68.00
2022-11-07T10:51:52.257Z,67.70
2022-11-07T10:54:29.549Z,67.70
2022-11-07T10:57:08.844Z,67.80
2022-11-07T10:59:39.155Z,67.80
2022-11-07T11:02:21.911Z,67.70
2022-11-07T11:04:51.547Z,67.50
2022-11-07T11:07:21.848Z,67.80
2022-11-07T11:10:00.111Z,67.70
2022-11-07T11:12:37.534Z,68.00
2022-11-07T11:15:07.097Z,67.90
2022-11-07T11:17:34.271Z,68.20
2022-11-07T11:20:00.994Z,68.30
2022-11-07T11:22:29.326Z,68.20
2022-11-07T11:25:20.012Z,68.40
2022-11-07T11:27:50.208Z,68.20
2022-11-07T11:30:19.692Z,68.20
2022-11-07T11:33:00.690Z,68.10
2022-11-07T11:35:47.594Z,68.40
2022-11-07T11:38:30.962Z,68.20
2022-11-07T11:41:12.780Z,68.50
2022-11-07T11:43:43.804Z,68.50
2022-11-07T11:46:30.401Z,68.40
2022-11-07T11:49:09.244Z,68.10
2022-11-07T11:51:43.419Z,68.40
2022-11-07T11:54:12.259Z,68.50
2022-11-07T11:57:10.656Z,68.30
2022-11-07T11:59:43.126Z,68.30
2022-11-07T12:02:50.303Z,68.30
2022-11-07T12:05:26.703Z,68.00
2022-11-07T12:08:02.152Z,68.20
2022-11-07T12:10:53.254Z,68.20
2022-11-07T12:13:47.634Z,68.10
2022-11-07T12:16:16.935Z,68.60
2022-11-07T12:19:13.988Z,68.70
2022-11-07T12:22:05.359Z,68.70
2022-11-07T12:24:45.579Z,69.00
2022-11-07T12:27:27.084Z,68.80
2022-11-07T12:30:37.276Z,68.80
2022-11-07T12:33:17.911Z,68.90
2022-11-07T12:35:57.126Z,68.80
2022-11-07T12:39:00.363Z,68.90
2022-11-07T12:41:56.162Z,68.80
2022-11-07T12:44:40.463Z,68.70
2022-11-07T12:47:16.109Z,68.60
2022-11-07T12:50:04.001Z,68.60
2022-11-07T12:52:53.917Z,68.60
2022-11-07T12:55:38.470Z,68.40
2022-11-07T12:58:10.166Z,68.50
2022-11-07T13:00:37.062Z,68.30
2022-11-07T13:03:24.574Z,68.30
2022-11-07T13:06:19.454Z,68.50
2022-11-07T13:08:54.987Z,68.40
2022-11-07T13:11:27.713Z,68.40
2022-11-07T13:14:07.227Z,68.30
2022-11-07T13:16:35.995Z,68.50
2022-11-07T13:19:29.348Z,68.40
2022-11-07T13:22:00.079Z,68.50
2022-11-07T13:24:26.997Z,68.40
2022-11-07T13:26:53.639Z,68.40
2022-11-07T13:29:38.190Z,68.40
2022-11-07T13:32:08.164Z,68.30
2022-11-07T13:34:48.775Z,68.40
2022-11-07T13:37:32.147Z,68.50
2022-11-07T13:40:05.863Z,68.40
2022-11-07T13:42:34.555Z,68.50
2022-11-07T13:45:17.761Z,68.40
2022-11-07T13:47:45.576Z,68.50
2022-11-07T13:50:41.007Z,68.50
2022-11-07T13:53:14.765Z,68.40
2022-11-07T13:56:00.124Z,68.10
2022-11-07T13:58:28.378Z,68.40
2022-11-07T14:00:55.089Z,68.20
2022-11-07T14:03:24.369Z,68.30
2022-11-07T14:05:51.794Z,68.60
2022-11-07T14:08:34.986Z,68.60
2022-11-07T14:11:01.969Z,68.70
2022-11-07T14:13:41.280Z,68.50
2022-11-07T14:16:19.514Z,68.50
2022-11-07T14:18:52.031Z,68.50
2022-11-07T14:21:27.668Z,68.60
2022-11-07T14:23:55.112Z,68.50
2022-11-07T14:26:33.364Z,68.40
2022-11-07T14:29:01.776Z,68.40
2022-11-07T14:31:34.486Z,68.30
2022-11-07T14:34:13.255Z,68.30
2022-11-07T14:37:00.910Z,68.10
2022-11-07T14:39:31.698Z,68.20
2022-11-07T14:42:01.012Z,68.20
2022-11-07T14:44:53.311Z,68.30
2022-11-07T14:47:32.272Z,68.30
2022-11-07T14:49:59.740Z,68.20
2022-11-07T14:52:36.198Z,68.00
2022-11-07T14:55:29.391Z,68.20
2022-11-07T14:57:59.509Z,68.10
2022-11-07T15:00:26.125Z,68.10
2022-11-07T15:02:56.392Z,68.20
2022-11-07T15:05:31.081Z,68.20
2022-11-07T15:08:06.484Z,68.30
2022-11-07T15:10:36.636Z,68.40
2022-11-07T15:13:24.280Z,68.20
2022-11-07T15:16:14.771Z,68.20
2022-11-07T15:18:43.914Z,68.20
2022-11-07T15:21:24.743Z,68.40
2022-11-07T15:23:52.930Z,68.30
2022-11-07T15:26:27.943Z,68.30
2022-11-07T15:28:54.694Z,68.30
2022-11-07T15:31:30.090Z,68.50
2022-11-07T15:33:58.779Z,68.40
2022-11-07T15:36:26.039Z,68.30
2022-11-07T15:38:53.128Z,68.10
2022-11-07T15:41:19.763Z,68.20
2022-11-07T15:43:46.427Z,68.30
2022-11-07T15:46:22.680Z,68.30
2022-11-07T15:48:49.390Z,68.50
2022-11-07T15:51:16.002Z,68.20
2022-11-07T15:53:42.604Z,68.30
2022-11-07T15:56:13.915Z,68.20
2022-11-07T15:58:40.846Z,68.40
2022-11-07T16:01:07.714Z,68.30
2022-11-07T16:03:34.475Z,68.10
2022-11-07T16:06:01.900Z,68.20
2022-11-07T16:08:30.284Z,68.30
2022-11-07T16:11:01.064Z,68.30
2022-11-07T16:13:28.797Z,68.40
2022-11-07T16:16:00.876Z,68.30
2022-11-07T16:18:28.213Z,68.40
2022-11-07T16:20:54.779Z,68.20
2022-11-07T16:23:23.820Z,68.20
2022-11-07T16:25:51.516Z,68.30
2022-11-07T16:28:31.350Z,68.30
2022-11-07T16:30:58.403Z,68.30
2022-11-07T16:33:26.251Z,68.20
2022-11-07T16:36:11.584Z,68.20
2022-11-07T16:38:38.144Z,68.30
2022-11-07T16:41:04.899Z,68.20
2022-11-07T16:43:34.970Z,68.10
2022-11-07T16:46:01.995Z,68.20
2022-11-07T16:48:29.748Z,68.20
2022-11-07T16:50:57.636Z,68.20
2022-11-07T16:53:25.155Z,68.30
2022-11-07T16:55:54.658Z,68.20
2022-11-07T16:58:31.761Z,68.20
2022-11-07T17:01:01.869Z,68.40
2022-11-07T17:03:29.309Z,68.30
2022-11-07T17:05:58.679Z,68.20
2022-11-07T17:08:37.565Z,68.30
2022-11-07T17:11:05.241Z,68.50
2022-11-07T17:13:32.088Z,68.20
2022-11-07T17:15:58.959Z,68.30
2022-11-07T17:18:27.074Z,68.30
2022-11-07T17:20:54.516Z,68.30
2022-11-07T17:23:29.592Z,68.30
2022-11-07T17:26:00.033Z,68.20
2022-11-07T17:28:26.648Z,68.20
2022-11-07T17:30:53.289Z,68.30
2022-11-07T17:33:19.876Z,68.20
2022-11-07T17:35:47.376Z,68.20
2022-11-07T17:38:17.681Z,68.10
2022-11-07T17:40:44.602Z,68.40
2022-11-07T17:43:11.177Z,68.20
2022-11-07T17:45:38.132Z,68.10
2022-11-07T17:48:05.091Z,68.20
2022-11-07T17:50:31.756Z,68.10
2022-11-07T17:52:58.430Z,68.00
2022-11-07T17:55:25.326Z,68.00
2022-11-07T17:57:52.017Z,68.10
2022-11-07T18:00:21.895Z,68.00
2022-11-07T18:02:50.177Z,68.10
2022-11-07T18:05:21.552Z,68.00
2022-11-07T18:07:48.428Z,68.00
2022-11-07T18:10:15.881Z,68.00
2022-11-07T18:12:43.130Z,67.90
2022-11-07T18:15:12.614Z,67.90
2022-11-07T18:17:40.659Z,68.00
2022-11-07T18:20:08.778Z,68.00
2022-11-07T18:22:37.034Z,68.00
2022-11-07T18:25:07.954Z,68.00
2022-11-07T18:27:35.399Z,68.10
2022-11-07T18:30:02.983Z,68.00
2022-11-07T18:32:35.771Z,67.90
2022-11-07T18:35:04.338Z,68.00
2022-11-07T18:37:30.941Z,68.00
2022-11-07T18:39:57.541Z,68.10
2022-11-07T18:42:24.185Z,68.10
2022-11-07T18:44:50.853Z,68.10
2022-11-07T18:47:17.451Z,68.20
2022-11-07T18:49:44.324Z,68.20
2022-11-07T18:52:10.948Z,68.10
2022-11-07T18:54:37.649Z,68.20
2022-11-07T18:57:04.330Z,68.20
2022-11-07T18:59:31.165Z,68.20
2022-11-07T19:01:57.900Z,68.10
2022-11-07T19:04:24.627Z,68.10
2022-11-07T19:06:57.466Z,68.00
2022-11-07T19:09:29.874Z,68.10
2022-11-07T19:11:58.030Z,68.30
2022-11-07T19:14:25.348Z,68.20
2022-11-07T19:16:52.022Z,68.20
2022-11-07T19:19:18.775Z,68.20
2022-11-07T19:21:45.660Z,68.30
2022-11-07T19:24:13.121Z,68.40
2022-11-07T19:26:39.718Z,68.10
2022-11-07T19:29:09.194Z,68.20
2022-11-07T19:31:36.710Z,68.20
2022-11-07T19:34:03.544Z,68.30
2022-11-07T19:36:30.880Z,68.30
2022-11-07T19:38:57.574Z,68.20
2022-11-07T19:41:24.188Z,68.20
2022-11-07T19:43:50.856Z,68.30
2022-11-07T19:46:21.140Z,68.20
2022-11-07T19:48:49.625Z,68.40
2022-11-07T19:51:21.954Z,68.30
2022-11-07T19:53:57.016Z,68.40
2022-11-07T19:56:25.854Z,68.50
2022-11-07T19:58:54.478Z,68.20
2022-11-07T20:01:27.569Z,68.40
2022-11-07T20:03:55.518Z,68.50
2022-11-07T20:06:27.375Z,68.50
2022-11-07T20:08:54.272Z,68.60
2022-11-07T20:11:24.154Z,68.60
2022-11-07T20:13:52.695Z,68.40
2022-11-07T20:16:19.257Z,68.60
2022-11-07T20:18:46.140Z,68.50
2022-11-07T20:21:19.111Z,68.40
2022-11-07T20:23:48.048Z,68.70
2022-11-07T20:26:17.417Z,68.60
2022-11-07T20:28:45.266Z,68.60
2022-11-07T20:31:17.227Z,68.40
2022-11-07T20:33:43.817Z,68.50
2022-11-07T20:36:13.208Z,68.40
2022-11-07T20:38:41.213Z,68.60
2022-11-07T20:41:08.628Z,68.60
2022-11-07T20:43:35.772Z,68.50
2022-11-07T20:46:08.396Z,68.50
2022-11-07T20:48:35.340Z,68.80
2022-11-07T20:51:19.971Z,68.70
2022-11-07T20:53:50.344Z,68.70
2022-11-07T20:56:19.721Z,68.50
2022-11-07T20:58:47.311Z,68.80
2022-11-07T21:01:20.499Z,68.80
2022-11-07T21:03:47.665Z,69.00
2022-11-07T21:06:14.394Z,68.90
2022-11-07T21:08:43.686Z,68.90
2022-11-07T21:11:11.420Z,68.90
2022-11-07T21:13:38.519Z,68.80
2022-11-07T21:16:06.106Z,68.70
2022-11-07T21:18:32.826Z,68.80
2022-11-07T21:21:06.337Z,68.80
2022-11-07T21:23:32.926Z,69.00
2022-11-07T21:25:59.716Z,68.80
2022-11-07T21:28:26.492Z,68.80
2022-11-07T21:31:04.659Z,68.70
2022-11-07T21:33:32.071Z,69.00
2022-11-07T21:35:58.830Z,68.70
2022-11-07T21:38:25.788Z,68.70
2022-11-07T21:40:53.021Z,68.60
2022-11-07T21:43:20.059Z,68.60
2022-11-07T21:45:46.773Z,68.60
2022-11-07T21:48:13.410Z,68.60
2022-11-07T21:50:45.317Z,68.60
2022-11-07T21:53:12.376Z,68.50
2022-11-07T21:55:39.023Z,68.60
2022-11-07T21:58:05.718Z,68.40
2022-11-07T22:00:36.506Z,68.60
2022-11-07T22:03:04.402Z,68.50
2022-11-07T22:05:31.414Z,68.40
2022-11-07T22:07:58.146Z,68.60
2022-11-07T22:10:24.863Z,68.50
2022-11-07T22:12:52.392Z,68.40
2022-11-07T22:15:19.117Z,68.50
2022-11-07T22:17:45.906Z,68.40
2022-11-07T22:20:12.969Z,68.30
2022-11-07T22:22:39.665Z,68.30
2022-11-07T22:25:06.881Z,68.40
2022-11-07T22:27:33.850Z,68.30
2022-11-07T22:30:00.560Z,68.30
2022-11-07T22:32:27.263Z,68.30
2022-11-07T22:34:53.988Z,68.30
2022-11-07T22:37:20.768Z,68.40
2022-11-07T22:39:47.458Z,68.40
2022-11-07T22:42:15.636Z,68.40
2022-11-07T22:44:44.113Z,68.30
2022-11-07T22:47:10.936Z,68.20
2022-11-07T22:49:37.643Z,68.20
2022-11-07T22:52:04.949Z,68.20
2022-11-07T22:54:31.673Z,68.20
2022-11-07T22:56:58.350Z,68.10
2022-11-07T22:59:25.139Z,68.20
2022-11-07T23:01:51.930Z,68.20
2022-11-07T23:04:18.888Z,68.20
2022-11-07T23:06:45.798Z,68.20
2022-11-07T23:09:14.680Z,68.10
2022-11-07T23:11:46.920Z,68.20
2022-11-07T23:14:17.552Z,68.20
2022-11-07T23:16:47.835Z,68.20
2022-11-07T23:19:16.600Z,68.00
2022-11-07T23:21:43.833Z,68.20
2022-11-07T23:24:11.419Z,68.20
2022-11-07T23:26:38.706Z,68.20
2022-11-07T23:29:11.462Z,68.10
2022-11-07T23:31:44.048Z,68.20
2022-11-07T23:34:10.828Z,68.20
2022-11-07T23:36:38.050Z,68.20
2022-11-07T23:39:06.461Z,68.20
2022-11-07T23:41:34.083Z,68.20
2022-11-07T23:44:00.799Z,68.20
2022-11-07T23:47:02.718Z,68.30
2022-11-07T23:49:48.757Z,68.20
2022-11-07T23:52:16.031Z,68.10
2022-11-07T23:55:01.386Z,68.20
2022-11-07T23:57:28.372Z,68.30
